createdAt,value
2022-12-16T00:01:28.114Z,14.32
2022-12-16T00:03:56.752Z,12.35
2022-12-16T00:06:26.390Z,13.85
2022-12-16T00:08:53.657Z,13.68
2022-12-16T00:11:21.591Z,14.13
2022-12-16T00:13:48.684Z,13.00
2022-12-16T00:16:18.171Z,13.25
2022-12-16T00:18:45.687Z,14.38
2022-12-16T00:21:12.794Z,14.65
2022-12-16T00:23:41.530Z,14.32
2022-12-16T00:26:09.203Z,13.55
2022-12-16T00:28:36.339Z,12.55
2022-12-16T00:31:03.178Z,15.20
2022-12-16T00:33:30.985Z,13.38
2022-12-16T00:35:57.952Z,13.70
2022-12-16T00:38:26.810Z,12.57
2022-12-16T00:40:53.591Z,14.57
2022-12-16T00:43:21.460Z,14.40
2022-12-16T00:45:48.777Z,13.85
2022-12-16T00:48:15.905Z,15.98
2022-12-16T00:50:49.312Z,14.90
2022-12-16T00:53:19.021Z,14.52
2022-12-16T00:55:46.546Z,15.68
2022-12-16T00:58:13.734Z,14.73
2022-12-16T01:00:40.654Z,14.93
2022-12-16T01:03:07.570Z,15.50
2022-12-16T01:05:34.412Z,15.25
2022-12-16T01:08:01.146Z,14.88
2022-12-16T01:10:27.956Z,15.38
2022-12-16T01:12:54.711Z,14.80
2022-12-16T01:15:22.070Z,14.68
2022-12-16T01:17:48.806Z,14.07
2022-12-16T01:20:15.840Z,14.13
2022-12-16T01:22:42.660Z,13.73
2022-12-16T01:25:12.895Z,14.45
2022-12-16T01:30:07.323Z,12.95
2022-12-16T01:32:34.048Z,12.60
2022-12-16T01:35:00.971Z,12.60
2022-12-16T01:37:27.721Z,12.70
2022-12-16T01:39:54.434Z,12.48
2022-12-16T01:42:22.761Z,12.07
2022-12-16T01:44:52.138Z,12.50
2022-12-16T01:47:33.208Z,13.90
2022-12-16T01:50:05.010Z,13.00
2022-12-16T01:52:39.191Z,13.10
2022-12-16T01:55:30.647Z,12.77
2022-12-16T01:58:09.275Z,13.32
2022-12-16T02:00:37.222Z,13.00
2022-12-16T02:03:05.143Z,13.10
2022-12-16T02:05:34.519Z,12.55
2022-12-16T02:08:15.774Z,13.07
2022-12-16T02:10:42.430Z,13.40
2022-12-16T02:13:19.067Z,13.95
2022-12-16T02:16:22.980Z,13.20
2022-12-16T02:18:57.807Z,12.65
2022-12-16T02:21:36.199Z,12.55
2022-12-16T02:24:05.825Z,13.75
2022-12-16T02:27:03.388Z,13.75
2022-12-16T02:29:54.570Z,12.70
2022-12-16T02:32:29.204Z,13.32
2022-12-16T02:35:10.675Z,12.32
2022-12-16T02:37:37.335Z,12.68
2022-12-16T02:40:32.814Z,12.98
2022-12-16T02:43:18.144Z,12.77
2022-12-16T02:45:46.005Z,12.32
2022-12-16T02:48:12.830Z,12.63
2022-12-16T02:50:52.664Z,12.40
2022-12-16T02:53:20.782Z,12.30
2022-12-16T02:56:06.401Z,12.68
2022-12-16T02:58:39.386Z,12.15
2022-12-16T03:01:13.601Z,12.27
2022-12-16T03:03:43.455Z,12.60
2022-12-16T03:06:13.767Z,13.23
2022-12-16T03:08:45.511Z,12.85
2022-12-16T03:11:12.848Z,13.23
2022-12-16T03:13:44.755Z,12.98
2022-12-16T03:16:14.136Z,12.40
2022-12-16T03:18:44.147Z,13.10
2022-12-16T03:21:14.047Z,13.80
2022-12-16T03:23:56.251Z,13.93
2022-12-16T03:26:41.081Z,13.80
2022-12-16T03:29:25.550Z,14.63
2022-12-16T03:31:58.832Z,14.30
2022-12-16T03:35:05.514Z,16.20
2022-12-16T03:37:34.541Z,14.52
2022-12-16T03:40:05.979Z,16.08
2022-12-16T03:42:33.528Z,15.48
2022-12-16T03:45:00.485Z,15.60
2022-12-16T03:47:29.234Z,15.30
2022-12-16T03:49:56.098Z,15.45
2022-12-16T03:52:22.870Z,14.93
2022-12-16T03:54:49.559Z,16.77
2022-12-16T03:57:16.288Z,17.13
2022-12-16T03:59:43.523Z,16.50
2022-12-16T04:02:10.321Z,16.70
2022-12-16T04:04:37.127Z,17.15
2022-12-16T04:07:22.238Z,17.42
2022-12-16T04:09:50.230Z,17.63
2022-12-16T04:12:35.861Z,18.05
2022-12-16T04:15:37.747Z,17.88
2022-12-16T04:18:23.969Z,18.35
2022-12-16T04:21:13.524Z,18.00
2022-12-16T04:24:09.526Z,18.63
2022-12-16T04:26:56.267Z,18.75
2022-12-16T04:29:23.643Z,19.98
2022-12-16T04:31:52.044Z,20.48
2022-12-16T04:34:25.769Z,19.65
2022-12-16T04:37:17.091Z,20.92
2022-12-16T04:40:03.248Z,19.55
2022-12-16T04:42:48.618Z,20.13
2022-12-16T04:45:34.209Z,19.92
2022-12-16T04:48:19.553Z,20.52
2022-12-16T04:51:05.080Z,20.33
2022-12-16T04:53:50.579Z,20.38
2022-12-16T04:56:35.935Z,20.90
2022-12-16T04:59:21.392Z,20.02
2022-12-16T05:02:06.983Z,20.67
2022-12-16T05:04:52.204Z,21.48
2022-12-16T05:07:38.661Z,20.80
2022-12-16T05:10:25.108Z,20.65
2022-12-16T05:13:12.634Z,20.67
2022-12-16T05:15:58.547Z,21.27
2022-12-16T05:18:43.965Z,21.55
2022-12-16T05:21:30.186Z,20.35
2022-12-16T05:24:15.632Z,21.15
2022-12-16T05:27:01.047Z,21.50
2022-12-16T05:29:46.395Z,21.50
2022-12-16T05:32:31.763Z,21.02
2022-12-16T05:35:17.212Z,21.80
2022-12-16T05:38:02.709Z,22.23
2022-12-16T05:40:48.055Z,21.73
2022-12-16T05:43:33.921Z,21.63
2022-12-16T05:46:19.542Z,21.85
2022-12-16T05:49:04.906Z,23.05
2022-12-16T05:51:50.351Z,22.10
2022-12-16T05:54:35.771Z,22.80
2022-12-16T05:57:20.974Z,22.67
2022-12-16T06:00:06.375Z,23.38
2022-12-16T06:02:51.939Z,22.75
2022-12-16T06:05:37.074Z,24.50
2022-12-16T06:08:22.557Z,24.73
2022-12-16T06:11:07.849Z,25.10
2022-12-16T06:13:53.343Z,23.98
2022-12-16T06:16:38.767Z,25.10
2022-12-16T06:19:24.387Z,25.50
2022-12-16T06:22:09.846Z,26.02
2022-12-16T06:24:55.099Z,25.85
2022-12-16T06:27:40.591Z,25.27
2022-12-16T06:30:26.591Z,23.73
2022-12-16T06:33:11.950Z,24.10
2022-12-16T06:35:57.541Z,25.67
2022-12-16T06:38:42.890Z,25.95
2022-12-16T06:41:28.345Z,27.17
2022-12-16T06:44:13.790Z,27.30
2022-12-16T06:46:59.255Z,27.42
2022-12-16T06:49:44.655Z,27.23
2022-12-16T06:52:30.085Z,27.77
2022-12-16T06:55:15.480Z,29.40
2022-12-16T06:58:01.296Z,29.58
2022-12-16T07:00:47.396Z,28.27
2022-12-16T07:03:35.999Z,28.30
2022-12-16T07:06:21.676Z,28.75
2022-12-16T07:09:07.136Z,28.85
2022-12-16T07:11:52.691Z,31.00
2022-12-16T07:14:38.115Z,29.58
2022-12-16T07:17:23.556Z,29.35
2022-12-16T07:20:08.903Z,30.58
2022-12-16T07:23:15.985Z,29.60
2022-12-16T07:26:04.555Z,30.38
2022-12-16T07:28:50.043Z,30.75
2022-12-16T07:31:35.558Z,30.77
2022-12-16T07:34:20.885Z,30.17
2022-12-16T07:37:06.419Z,31.20
2022-12-16T07:39:55.069Z,31.25
2022-12-16T07:42:41.354Z,29.75
2022-12-16T07:45:27.832Z,29.75
2022-12-16T07:48:13.468Z,29.85
2022-12-16T07:50:59.490Z,30.15
2022-12-16T07:53:44.954Z,30.55
2022-12-16T07:56:30.921Z,29.73
2022-12-16T07:59:16.307Z,31.63
2022-12-16T08:02:01.769Z,29.08
2022-12-16T08:04:47.259Z,28.75
2022-12-16T08:07:32.685Z,28.60
2022-12-16T08:10:17.968Z,26.90
2022-12-16T08:13:03.563Z,27.67
2022-12-16T08:15:48.884Z,28.35
2022-12-16T08:18:34.344Z,26.35
2022-12-16T08:21:19.862Z,28.00
2022-12-16T08:24:05.322Z,27.52
2022-12-16T08:26:50.981Z,27.60
2022-12-16T08:29:44.879Z,29.13
2022-12-16T08:32:31.166Z,27.27
2022-12-16T08:35:16.877Z,28.80
2022-12-16T08:38:02.146Z,29.25
2022-12-16T08:40:47.577Z,29.77
2022-12-16T08:43:33.379Z,28.20
2022-12-16T08:46:19.077Z,27.88
2022-12-16T08:49:04.225Z,27.70
2022-12-16T08:51:49.671Z,28.08
2022-12-16T08:54:35.146Z,25.95
2022-12-16T08:57:20.791Z,27.58
2022-12-16T09:00:06.202Z,27.70
2022-12-16T09:02:51.781Z,26.88
2022-12-16T09:05:37.979Z,28.40
2022-12-16T09:08:23.979Z,26.90
2022-12-16T09:11:09.438Z,28.15
2022-12-16T09:13:54.765Z,26.85
2022-12-16T09:16:40.498Z,24.88
2022-12-16T09:19:25.801Z,25.65
2022-12-16T09:22:11.342Z,25.13
2022-12-16T09:24:56.896Z,25.67
2022-12-16T09:27:42.044Z,25.60
2022-12-16T09:30:28.048Z,24.27
2022-12-16T09:33:13.533Z,25.90
2022-12-16T09:35:58.898Z,26.00
2022-12-16T09:38:44.420Z,25.55
2022-12-16T09:42:02.589Z,26.13
2022-12-16T09:44:51.215Z,24.20
2022-12-16T09:48:06.218Z,24.70
2022-12-16T09:50:54.751Z,24.42
2022-12-16T09:53:41.466Z,24.33
2022-12-16T09:56:34.503Z,24.17
2022-12-16T09:59:24.417Z,23.77
2022-12-16T10:02:11.012Z,23.33
2022-12-16T10:04:56.205Z,24.80
2022-12-16T10:07:42.383Z,25.20
2022-12-16T10:10:47.211Z,24.40
2022-12-16T10:13:50.195Z,25.73
2022-12-16T10:16:51.011Z,23.77
2022-12-16T10:19:46.019Z,24.55
2022-12-16T10:22:39.092Z,24.73
2022-12-16T10:25:42.747Z,25.65
2022-12-16T10:28:37.268Z,26.02
2022-12-16T10:31:34.460Z,25.92
2022-12-16T10:34:20.019Z,26.67
2022-12-16T10:37:12.358Z,26.38
2022-12-16T10:40:04.203Z,26.08
2022-12-16T10:42:54.104Z,27.55
2022-12-16T10:46:04.410Z,26.17
2022-12-16T10:48:56.400Z,26.85
2022-12-16T10:51:45.368Z,26.45
2022-12-16T10:54:39.550Z,26.20
2022-12-16T10:57:50.924Z,26.02
2022-12-16T11:01:04.192Z,25.55
2022-12-16T11:03:52.774Z,25.63
2022-12-16T11:06:57.748Z,25.25
2022-12-16T11:09:51.905Z,25.48
2022-12-16T11:12:41.579Z,26.42
2022-12-16T11:15:50.590Z,26.50
2022-12-16T11:18:38.851Z,27.70
2022-12-16T11:21:31.479Z,26.77
2022-12-16T11:24:43.226Z,25.77
2022-12-16T11:28:02.718Z,27.70
2022-12-16T11:30:48.367Z,26.13
2022-12-16T11:33:41.600Z,26.92
2022-12-16T11:36:36.337Z,26.48
2022-12-16T11:39:23.173Z,27.05
2022-12-16T11:42:11.640Z,27.38
2022-12-16T11:45:15.359Z,27.88
2022-12-16T11:48:15.289Z,27.15
2022-12-16T11:51:09.330Z,27.38
2022-12-16T11:54:11.020Z,25.95
2022-12-16T11:57:00.485Z,26.15
2022-12-16T12:00:03.331Z,28.60
2022-12-16T12:02:55.820Z,27.15
2022-12-16T12:05:57.174Z,26.25
2022-12-16T12:09:19.086Z,27.33
2022-12-16T12:12:17.554Z,26.52
2022-12-16T12:15:14.799Z,26.45
2022-12-16T12:18:00.083Z,26.05
2022-12-16T12:21:23.130Z,26.55
2022-12-16T12:24:23.383Z,25.50
2022-12-16T12:30:28.722Z,26.15
2022-12-16T12:33:26.153Z,26.45
2022-12-16T12:36:19.214Z,26.00
2022-12-16T12:39:25.565Z,26.27
2022-12-16T12:42:35.151Z,26.20
2022-12-16T12:45:48.417Z,25.58
2022-12-16T12:48:45.019Z,25.88
2022-12-16T12:51:38.102Z,26.02
2022-12-16T12:54:54.325Z,24.30
2022-12-16T12:57:44.686Z,25.38
2022-12-16T13:00:38.189Z,25.42
2022-12-16T13:03:46.704Z,24.95
2022-12-16T13:06:39.196Z,26.60
2022-12-16T13:09:57.761Z,25.70
2022-12-16T13:12:45.122Z,25.80
2022-12-16T13:15:37.446Z,25.25
2022-12-16T13:18:22.887Z,24.88
2022-12-16T13:21:16.412Z,25.02
2022-12-16T13:24:02.861Z,25.83
2022-12-16T13:26:51.481Z,25.60
2022-12-16T13:29:44.070Z,25.80
2022-12-16T13:32:37.196Z,25.65
2022-12-16T13:35:28.310Z,26.83
2022-12-16T13:38:16.275Z,25.05
2022-12-16T13:41:18.075Z,25.23
2022-12-16T13:44:17.187Z,24.80
2022-12-16T13:47:10.872Z,26.13
2022-12-16T13:49:56.439Z,26.45
2022-12-16T13:52:42.000Z,24.83
2022-12-16T13:55:59.206Z,25.17
2022-12-16T13:59:03.275Z,23.90
2022-12-16T14:01:55.743Z,25.75
2022-12-16T14:04:52.300Z,25.27
2022-12-16T14:07:41.229Z,23.77
2022-12-16T14:10:47.871Z,24.20
2022-12-16T14:13:38.796Z,23.35
2022-12-16T14:16:44.011Z,23.75
2022-12-16T14:20:01.427Z,22.35
2022-12-16T14:23:39.221Z,22.73
2022-12-16T14:26:22.307Z,23.20
2022-12-16T14:29:07.939Z,23.30
2022-12-16T14:31:59.035Z,22.92
2022-12-16T14:34:55.313Z,22.20
2022-12-16T14:37:43.184Z,22.35
2022-12-16T14:40:49.038Z,22.90
2022-12-16T14:43:42.744Z,22.35
2022-12-16T14:46:42.927Z,22.63
2022-12-16T14:52:37.880Z,23.08
2022-12-16T14:55:38.962Z,22.05
2022-12-16T14:58:35.102Z,23.33
2022-12-16T15:01:29.772Z,23.15
2022-12-16T15:04:16.622Z,24.80
2022-12-16T15:07:05.855Z,23.35
2022-12-16T15:09:58.883Z,23.65
2022-12-16T15:12:49.975Z,23.63
2022-12-16T15:15:48.783Z,22.58
2022-12-16T15:18:38.893Z,23.52
2022-12-16T15:24:11.358Z,22.73
2022-12-16T15:26:56.966Z,23.75
2022-12-16T15:29:54.322Z,21.85
2022-12-16T15:32:53.713Z,23.10
2022-12-16T15:35:44.764Z,23.13
2022-12-16T15:38:53.319Z,22.83
2022-12-16T15:41:38.672Z,21.52
2022-12-16T15:44:24.727Z,22.00
2022-12-16T15:47:10.200Z,21.40
2022-12-16T15:50:03.499Z,21.30
2022-12-16T15:52:57.927Z,19.20
2022-12-16T15:55:52.633Z,19.05
2022-12-16T15:58:47.190Z,22.20
2022-12-16T16:01:35.663Z,24.75
2022-12-16T16:04:21.568Z,21.48
2022-12-16T16:07:11.161Z,20.80
2022-12-16T16:09:58.461Z,21.42
2022-12-16T16:12:44.525Z,19.33
2022-12-16T16:15:33.033Z,21.48
2022-12-16T16:18:21.523Z,21.35
2022-12-16T16:21:07.439Z,21.83
2022-12-16T16:23:52.828Z,21.38
2022-12-16T16:26:40.902Z,20.58
2022-12-16T16:29:29.002Z,19.65
2022-12-16T16:32:14.674Z,19.77
2022-12-16T16:35:00.154Z,19.20
2022-12-16T16:37:45.707Z,21.95
2022-12-16T16:40:54.430Z,19.52
2022-12-16T16:43:40.271Z,19.55
2022-12-16T16:46:58.738Z,20.05
2022-12-16T16:49:51.974Z,21.55
2022-12-16T16:52:40.007Z,20.80
2022-12-16T16:55:26.118Z,21.50
2022-12-16T16:58:11.621Z,20.90
2022-12-16T17:00:57.246Z,20.60
2022-12-16T17:03:43.013Z,20.85
2022-12-16T17:06:28.914Z,21.63
2022-12-16T17:09:14.501Z,20.92
2022-12-16T17:12:00.086Z,22.02
2022-12-16T17:14:45.569Z,21.40
2022-12-16T17:17:31.066Z,21.30
2022-12-16T17:20:16.766Z,22.00
2022-12-16T17:23:19.184Z,23.60
2022-12-16T17:26:04.362Z,22.20
2022-12-16T17:28:49.880Z,20.73
2022-12-16T17:31:35.397Z,21.88
2022-12-16T17:34:20.886Z,21.98
2022-12-16T17:37:06.233Z,21.88
2022-12-16T17:39:51.517Z,22.15
2022-12-16T17:42:37.302Z,21.92
2022-12-16T17:45:27.702Z,22.48
2022-12-16T17:48:12.792Z,21.52
2022-12-16T17:50:58.383Z,22.02
2022-12-16T17:53:43.777Z,22.60
2022-12-16T17:56:29.339Z,22.92
2022-12-16T17:59:14.930Z,22.75
2022-12-16T18:02:00.419Z,22.50
2022-12-16T18:04:45.817Z,24.25
2022-12-16T18:07:31.471Z,23.08
2022-12-16T18:10:17.007Z,23.27
2022-12-16T18:13:02.643Z,24.30
2022-12-16T18:15:48.050Z,25.02
2022-12-16T18:18:33.508Z,25.92
2022-12-16T18:21:32.363Z,24.45
2022-12-16T18:24:17.932Z,23.75
2022-12-16T18:27:03.583Z,23.15
2022-12-16T18:29:48.933Z,25.27
2022-12-16T18:32:35.417Z,24.08
2022-12-16T18:35:21.355Z,23.65
2022-12-16T18:38:06.653Z,22.80
2022-12-16T18:40:52.179Z,24.45
2022-12-16T18:43:37.776Z,24.17
2022-12-16T18:46:23.309Z,24.42
2022-12-16T18:49:11.552Z,24.42
2022-12-16T18:51:57.046Z,21.58
2022-12-16T18:54:42.670Z,22.70
2022-12-16T18:57:28.051Z,24.17
2022-12-16T19:00:13.655Z,23.17
2022-12-16T19:02:59.288Z,22.08
2022-12-16T19:05:44.758Z,22.80
2022-12-16T19:08:30.376Z,22.00
2022-12-16T19:11:18.846Z,21.40
2022-12-16T19:14:04.177Z,22.33
2022-12-16T19:16:49.813Z,18.95
2022-12-16T19:19:35.025Z,20.48
2022-12-16T19:22:20.470Z,20.17
2022-12-16T19:25:05.962Z,21.00
2022-12-16T19:27:52.099Z,20.70
2022-12-16T19:30:37.845Z,20.67
2022-12-16T19:33:23.323Z,22.20
2022-12-16T19:36:08.849Z,21.45
2022-12-16T19:38:54.893Z,21.05
2022-12-16T19:41:42.084Z,21.17
2022-12-16T19:44:27.770Z,20.85
2022-12-16T19:47:15.757Z,21.30
2022-12-16T19:50:01.215Z,21.98
2022-12-16T19:52:46.899Z,22.00
2022-12-16T19:55:32.297Z,22.13
2022-12-16T19:58:17.750Z,21.00
2022-12-16T20:01:03.322Z,20.52
2022-12-16T20:03:49.226Z,20.65
2022-12-16T20:06:35.052Z,21.23
2022-12-16T20:09:20.631Z,21.27
2022-12-16T20:12:06.170Z,20.63
2022-12-16T20:14:51.732Z,20.45
2022-12-16T20:17:37.041Z,21.38
2022-12-16T20:20:23.071Z,21.95
2022-12-16T20:23:08.449Z,19.80
2022-12-16T20:29:00.013Z,21.27
2022-12-16T20:31:45.460Z,21.95
2022-12-16T20:34:30.935Z,23.60
2022-12-16T20:37:16.362Z,21.85
2022-12-16T20:40:01.816Z,21.00
2022-12-16T20:42:47.487Z,21.40
2022-12-16T20:45:33.480Z,22.50
2022-12-16T20:48:19.254Z,21.73
2022-12-16T20:51:18.622Z,22.25
2022-12-16T20:54:09.017Z,23.40
2022-12-16T20:56:54.863Z,25.02
2022-12-16T20:59:41.465Z,22.92
2022-12-16T21:02:33.526Z,24.13
2022-12-16T21:05:19.844Z,23.42
2022-12-16T21:08:05.390Z,23.20
2022-12-16T21:10:51.639Z,24.20
2022-12-16T21:13:37.536Z,22.70
2022-12-16T21:16:24.863Z,24.10
2022-12-16T21:19:10.294Z,23.52
2022-12-16T21:21:56.445Z,23.48
2022-12-16T21:24:56.070Z,22.42
2022-12-16T21:27:41.880Z,23.05
2022-12-16T21:30:27.999Z,24.08
2022-12-16T21:33:13.473Z,22.85
2022-12-16T21:35:58.677Z,23.20
2022-12-16T21:38:44.032Z,23.75
2022-12-16T21:41:29.254Z,22.70
2022-12-16T21:44:14.822Z,22.08
2022-12-16T21:46:59.989Z,22.27
2022-12-16T21:49:45.460Z,21.75
2022-12-16T21:52:41.354Z,23.08
2022-12-16T21:55:40.494Z,21.83
2022-12-16T21:58:30.121Z,23.00
2022-12-16T22:01:17.086Z,23.13
2022-12-16T22:04:02.550Z,24.40
2022-12-16T22:06:49.081Z,23.45
2022-12-16T22:09:35.056Z,23.75
2022-12-16T22:12:20.627Z,23.50
2022-12-16T22:15:05.864Z,24.10
2022-12-16T22:17:57.796Z,23.88
2022-12-16T22:20:44.337Z,21.98
2022-12-16T22:23:30.108Z,22.23
2022-12-16T22:26:20.182Z,22.55
2022-12-16T22:29:05.836Z,22.30
2022-12-16T22:31:51.034Z,20.52
2022-12-16T22:34:37.453Z,22.05
2022-12-16T22:37:22.943Z,22.80
2022-12-16T22:40:08.270Z,21.17
2022-12-16T22:42:53.868Z,21.20
2022-12-16T22:45:41.698Z,20.70
2022-12-16T22:48:27.051Z,21.05
2022-12-16T22:51:12.468Z,21.05
2022-12-16T22:53:57.896Z,21.17
2022-12-16T22:56:43.276Z,20.83
2022-12-16T22:59:28.639Z,19.20
2022-12-16T23:02:13.970Z,19.00
2022-12-16T23:04:59.455Z,18.15
2022-12-16T23:07:44.659Z,18.92
2022-12-16T23:10:30.196Z,18.63
2022-12-16T23:13:15.572Z,18.10
2022-12-16T23:16:00.762Z,19.25
2022-12-16T23:18:46.296Z,18.60
2022-12-16T23:21:36.220Z,19.83
2022-12-16T23:24:21.734Z,18.85
2022-12-16T23:27:06.985Z,19.35
2022-12-16T23:29:52.384Z,19.35
2022-12-16T23:32:30.072Z,21.50
2022-12-16T23:32:42.487Z,19.08
2022-12-16T23:35:27.919Z,19.77
2022-12-16T23:38:24.147Z,19.45
2022-12-16T23:41:17.216Z,18.70
2022-12-16T23:44:02.786Z,20.27
2022-12-16T23:46:48.768Z,19.65
2022-12-16T23:49:34.037Z,18.63
2022-12-16T23:52:19.655Z,18.05
2022-12-16T23:55:04.837Z,17.90
2022-12-16T23:57:50.389Z,17.80
